createdAt,value
2017-11-11T00:00:28.285Z,0
2017-11-11T00:01:08.810Z,0
2017-11-11T00:01:49.372Z,0
2017-11-11T00:02:29.921Z,0
2017-11-11T00:03:10.486Z,0
2017-11-11T00:03:51.023Z,0
2017-11-11T00:04:31.582Z,0
2017-11-11T00:05:12.202Z,0
2017-11-11T00:05:52.774Z,0
2017-11-11T00:06:33.359Z,0
2017-11-11T00:07:13.886Z,0
2017-11-11T00:07:54.402Z,0
2017-11-11T00:08:34.966Z,0
2017-11-11T00:09:15.530Z,0
2017-11-11T00:09:56.072Z,0
2017-11-11T00:10:36.655Z,0
2017-11-11T00:11:17.264Z,0
2017-11-11T00:11:57.780Z,0
2017-11-11T00:12:38.343Z,0
2017-11-11T00:13:18.864Z,0
2017-11-11T00:13:59.440Z,0
2017-11-11T00:14:39.975Z,0
2017-11-11T00:15:20.542Z,0
2017-11-11T00:16:01.053Z,0
2017-11-11T00:16:41.606Z,0
2017-11-11T00:17:22.141Z,0
2017-11-11T00:18:02.665Z,0
2017-11-11T00:18:43.201Z,0
2017-11-11T00:19:23.788Z,0
2017-11-11T00:20:04.332Z,0
2017-11-11T00:20:44.915Z,0
2017-11-11T00:21:25.423Z,0
2017-11-11T00:22:05.950Z,0
2017-11-11T00:22:46.489Z,0
2017-11-11T00:23:27.031Z,0
2017-11-11T00:24:07.620Z,0
2017-11-11T00:24:48.178Z,0
2017-11-11T00:25:28.705Z,0
2017-11-11T00:26:09.283Z,0
2017-11-11T00:26:49.795Z,0
2017-11-11T00:27:30.506Z,0
2017-11-11T00:28:11.124Z,0
2017-11-11T00:28:51.653Z,0
2017-11-11T00:29:32.202Z,0
2017-11-11T00:30:12.765Z,0
2017-11-11T00:30:53.326Z,0
2017-11-11T00:31:33.874Z,0
2017-11-11T00:32:14.403Z,0
2017-11-11T00:32:54.976Z,0
2017-11-11T00:33:35.549Z,0
2017-11-11T00:34:16.070Z,0
2017-11-11T00:34:56.628Z,0
2017-11-11T00:35:37.659Z,0
2017-11-11T00:36:18.571Z,0
2017-11-11T00:37:00.178Z,0
2017-11-11T00:37:39.720Z,0
2017-11-11T00:38:20.231Z,0
2017-11-11T00:39:00.774Z,0
2017-11-11T00:39:41.308Z,0
2017-11-11T00:40:21.896Z,0
2017-11-11T00:41:02.387Z,0
2017-11-11T00:41:42.918Z,0
2017-11-11T00:42:23.456Z,0
2017-11-11T00:43:04.060Z,0
2017-11-11T00:43:44.596Z,0
2017-11-11T00:44:25.123Z,0
2017-11-11T00:45:05.645Z,0
2017-11-11T00:45:46.214Z,0
2017-11-11T00:46:26.781Z,0
2017-11-11T00:47:07.308Z,0
2017-11-11T00:47:47.850Z,0
2017-11-11T00:48:28.414Z,0
2017-11-11T00:49:08.983Z,0
2017-11-11T00:49:49.561Z,0
2017-11-11T00:50:30.090Z,0
2017-11-11T00:51:10.625Z,0
2017-11-11T00:51:51.168Z,0
2017-11-11T00:52:31.740Z,0
2017-11-11T00:53:12.286Z,0
2017-11-11T00:53:52.795Z,0
2017-11-11T00:54:33.307Z,0
2017-11-11T00:55:13.833Z,0
2017-11-11T00:55:54.362Z,0
2017-11-11T00:56:34.932Z,0
2017-11-11T00:57:15.414Z,0
2017-11-11T00:57:55.969Z,0
2017-11-11T00:58:36.524Z,0
2017-11-11T00:59:17.092Z,0
2017-11-11T00:59:57.650Z,0
2017-11-11T01:00:38.197Z,0
2017-11-11T01:01:18.727Z,0
2017-11-11T01:01:59.236Z,0
2017-11-11T01:02:39.780Z,0
2017-11-11T01:03:20.311Z,0
2017-11-11T01:04:00.813Z,0
2017-11-11T01:04:41.389Z,0
2017-11-11T01:05:21.903Z,0
2017-11-11T01:06:02.400Z,0
2017-11-11T01:06:42.964Z,0
2017-11-11T01:07:23.508Z,0
2017-11-11T01:08:04.050Z,0
2017-11-11T01:08:44.621Z,0
2017-11-11T01:09:25.161Z,0
2017-11-11T01:10:05.727Z,0
2017-11-11T01:10:46.278Z,0
2017-11-11T01:11:26.839Z,0
2017-11-11T01:12:07.376Z,0
2017-11-11T01:12:47.946Z,0
2017-11-11T01:13:28.459Z,0
2017-11-11T01:14:09.017Z,0
2017-11-11T01:14:49.601Z,0
2017-11-11T01:15:30.168Z,0
2017-11-11T01:16:10.725Z,0
2017-11-11T01:16:51.230Z,0
2017-11-11T01:17:31.788Z,0
2017-11-11T01:18:12.342Z,0
2017-11-11T01:18:52.888Z,0
2017-11-11T01:19:33.420Z,0
2017-11-11T01:20:14.012Z,0
2017-11-11T01:20:54.537Z,0
2017-11-11T01:21:35.105Z,0
2017-11-11T01:22:15.695Z,0
2017-11-11T01:22:56.234Z,0
2017-11-11T01:23:36.832Z,0
2017-11-11T01:24:17.405Z,0
2017-11-11T01:24:57.937Z,0
2017-11-11T01:25:38.482Z,0
2017-11-11T01:26:19.062Z,0
2017-11-11T01:26:59.577Z,0
2017-11-11T01:27:40.145Z,0
2017-11-11T01:28:20.701Z,0
2017-11-11T01:29:01.260Z,0
2017-11-11T01:29:41.811Z,0
2017-11-11T01:30:22.345Z,0
2017-11-11T01:31:02.902Z,0
2017-11-11T01:31:44.164Z,0
2017-11-11T01:32:26.290Z,0
2017-11-11T01:33:06.877Z,0
2017-11-11T01:33:47.381Z,0
2017-11-11T01:34:27.921Z,0
2017-11-11T01:35:08.844Z,0
2017-11-11T01:35:49.224Z,0
2017-11-11T01:36:29.780Z,0
2017-11-11T01:37:10.327Z,0
2017-11-11T01:37:50.871Z,0
2017-11-11T01:38:31.420Z,0
2017-11-11T01:39:11.970Z,0
2017-11-11T01:39:52.526Z,0
2017-11-11T01:40:33.046Z,0
2017-11-11T01:41:13.628Z,0
2017-11-11T01:41:54.162Z,0
2017-11-11T01:42:34.739Z,0
2017-11-11T01:43:15.286Z,0
2017-11-11T01:43:55.844Z,0
2017-11-11T01:44:36.418Z,0
2017-11-11T01:45:16.922Z,0
2017-11-11T01:45:57.474Z,0
2017-11-11T01:46:38.047Z,0
2017-11-11T01:47:18.577Z,0
2017-11-11T01:47:59.163Z,0
2017-11-11T01:48:39.678Z,0
2017-11-11T01:49:20.262Z,0
2017-11-11T01:50:00.810Z,0
2017-11-11T01:50:41.387Z,0
2017-11-11T01:51:21.976Z,0
2017-11-11T01:52:02.525Z,0
2017-11-11T01:52:43.068Z,0
2017-11-11T01:53:23.646Z,0
2017-11-11T01:54:04.174Z,0
2017-11-11T01:54:44.737Z,0
2017-11-11T01:55:25.239Z,0
2017-11-11T01:56:05.823Z,0
2017-11-11T01:56:46.329Z,0
2017-11-11T01:57:26.962Z,0
2017-11-11T01:58:07.502Z,0
2017-11-11T01:58:48.038Z,0
2017-11-11T01:59:28.674Z,0
2017-11-11T02:00:09.206Z,0
2017-11-11T02:00:49.753Z,0
2017-11-11T02:01:30.300Z,0
2017-11-11T02:02:10.870Z,0
2017-11-11T02:02:51.485Z,0
2017-11-11T02:03:32.028Z,0
2017-11-11T02:04:12.586Z,0
2017-11-11T02:04:53.107Z,0
2017-11-11T02:05:33.694Z,0
2017-11-11T02:06:14.252Z,0
2017-11-11T02:06:54.797Z,0
2017-11-11T02:07:35.351Z,0
2017-11-11T02:08:15.902Z,0
2017-11-11T02:08:56.452Z,0
2017-11-11T02:09:36.986Z,0
2017-11-11T02:10:17.564Z,0
2017-11-11T02:10:58.196Z,0
2017-11-11T02:11:38.730Z,0
2017-11-11T02:12:19.453Z,0
2017-11-11T02:12:59.863Z,0
2017-11-11T02:13:40.450Z,0
2017-11-11T02:14:21.010Z,0
2017-11-11T02:15:01.551Z,0
2017-11-11T02:15:42.110Z,0
2017-11-11T02:16:22.625Z,0
2017-11-11T02:17:03.213Z,0
2017-11-11T02:17:43.815Z,0
2017-11-11T02:18:24.448Z,0
2017-11-11T02:19:04.955Z,0
2017-11-11T02:19:45.528Z,0
2017-11-11T02:20:26.098Z,0
2017-11-11T02:21:06.653Z,0
2017-11-11T02:21:47.202Z,0
2017-11-11T02:22:27.735Z,0
2017-11-11T02:23:08.308Z,0
2017-11-11T02:23:48.839Z,0
2017-11-11T02:24:29.411Z,0
2017-11-11T02:25:09.967Z,0
2017-11-11T02:25:50.538Z,0
2017-11-11T02:26:31.084Z,0
2017-11-11T02:27:11.638Z,0
2017-11-11T02:27:52.184Z,0
2017-11-11T02:28:32.790Z,0
2017-11-11T02:29:13.365Z,0
2017-11-11T02:29:53.927Z,0
2017-11-11T02:30:34.502Z,0
2017-11-11T02:31:15.115Z,0
2017-11-11T02:31:55.685Z,0
2017-11-11T02:32:36.206Z,0
2017-11-11T02:33:16.757Z,0
2017-11-11T02:33:57.303Z,0
2017-11-11T02:34:37.857Z,0
2017-11-11T02:35:18.389Z,0
2017-11-11T02:35:59.001Z,0
2017-11-11T02:36:39.530Z,0
2017-11-11T02:37:20.094Z,0
2017-11-11T02:38:00.625Z,0
2017-11-11T02:38:41.195Z,0
2017-11-11T02:39:21.757Z,0
2017-11-11T02:40:02.311Z,0
2017-11-11T02:40:42.879Z,0
2017-11-11T02:41:23.391Z,0
2017-11-11T02:42:03.971Z,0
2017-11-11T02:42:44.556Z,0
2017-11-11T02:43:25.151Z,0
2017-11-11T02:44:05.737Z,0
2017-11-11T02:44:46.252Z,0
2017-11-11T02:45:26.781Z,0
2017-11-11T02:46:07.357Z,0
2017-11-11T02:46:47.903Z,0
2017-11-11T02:47:28.457Z,0
2017-11-11T02:48:09.031Z,0
2017-11-11T02:48:49.594Z,0
2017-11-11T02:49:30.146Z,0
2017-11-11T02:50:10.871Z,0
2017-11-11T02:50:51.429Z,0
2017-11-11T02:51:31.982Z,0
2017-11-11T02:52:12.518Z,0
2017-11-11T02:52:53.089Z,0
2017-11-11T02:53:33.644Z,0
2017-11-11T02:54:14.191Z,0
2017-11-11T02:54:54.749Z,0
2017-11-11T02:55:35.274Z,0
2017-11-11T02:56:15.817Z,0
2017-11-11T02:56:56.475Z,0
2017-11-11T02:57:37.095Z,0
2017-11-11T02:58:17.618Z,0
2017-11-11T02:58:58.155Z,0
2017-11-11T02:59:38.678Z,0
2017-11-11T03:00:19.251Z,0
2017-11-11T03:00:59.822Z,0
2017-11-11T03:01:40.357Z,0
2017-11-11T03:02:20.960Z,0
2017-11-11T03:03:01.480Z,0
2017-11-11T03:03:42.029Z,0
2017-11-11T03:04:22.597Z,0
2017-11-11T03:05:03.106Z,0
2017-11-11T03:05:43.671Z,0
2017-11-11T03:06:24.225Z,0
2017-11-11T03:07:04.762Z,0
2017-11-11T03:07:45.331Z,0
2017-11-11T03:08:25.880Z,0
2017-11-11T03:09:06.507Z,0
2017-11-11T03:09:47.019Z,0
2017-11-11T03:10:27.570Z,0
2017-11-11T03:11:08.145Z,0
2017-11-11T03:11:48.666Z,0
2017-11-11T03:12:29.245Z,0
2017-11-11T03:13:09.758Z,0
2017-11-11T03:13:50.336Z,0
2017-11-11T03:14:30.902Z,0
2017-11-11T03:15:11.459Z,0
2017-11-11T03:15:52.053Z,0
2017-11-11T03:16:32.621Z,0
2017-11-11T03:17:13.204Z,0
2017-11-11T03:17:53.696Z,0
2017-11-11T03:18:34.254Z,0
2017-11-11T03:19:14.756Z,0
2017-11-11T03:19:55.318Z,0
2017-11-11T03:20:35.874Z,0
2017-11-11T03:21:16.437Z,0
2017-11-11T03:21:56.990Z,0
2017-11-11T03:22:37.491Z,0
2017-11-11T03:23:18.065Z,0
2017-11-11T03:23:58.651Z,0
2017-11-11T03:24:39.221Z,0
2017-11-11T03:25:19.729Z,0
2017-11-11T03:26:00.288Z,0
2017-11-11T03:26:40.855Z,0
2017-11-11T03:27:21.455Z,0
2017-11-11T03:28:02.035Z,0
2017-11-11T03:28:42.588Z,0
2017-11-11T03:29:23.126Z,0
2017-11-11T03:30:03.682Z,0
2017-11-11T03:30:44.227Z,0
2017-11-11T03:31:24.776Z,0
2017-11-11T03:32:05.329Z,0
2017-11-11T03:32:45.882Z,0
2017-11-11T03:33:26.536Z,0
2017-11-11T03:34:07.095Z,0
2017-11-11T03:34:47.668Z,0
2017-11-11T03:35:28.178Z,0
2017-11-11T03:36:08.745Z,0
2017-11-11T03:36:49.287Z,0
2017-11-11T03:37:29.841Z,0
2017-11-11T03:38:10.352Z,0
2017-11-11T03:38:50.916Z,0
2017-11-11T03:39:31.430Z,0
2017-11-11T03:40:11.970Z,0
2017-11-11T03:40:52.525Z,0
2017-11-11T03:41:33.075Z,0
2017-11-11T03:42:13.663Z,0
2017-11-11T03:42:54.204Z,0
2017-11-11T03:43:34.755Z,0
2017-11-11T03:44:15.317Z,0
2017-11-11T03:44:55.845Z,0
2017-11-11T03:45:36.390Z,0
2017-11-11T03:46:17.001Z,0
2017-11-11T03:46:57.516Z,0
2017-11-11T03:47:38.071Z,0
2017-11-11T03:48:18.648Z,0
2017-11-11T03:48:59.181Z,0
2017-11-11T03:49:39.733Z,0
2017-11-11T03:50:20.261Z,0
2017-11-11T03:51:00.826Z,0
2017-11-11T03:51:41.381Z,0
2017-11-11T03:52:21.950Z,0
2017-11-11T03:53:02.497Z,0
2017-11-11T03:53:43.049Z,0
2017-11-11T03:54:23.663Z,0
2017-11-11T03:55:04.148Z,0
2017-11-11T03:55:44.727Z,0
2017-11-11T03:56:25.232Z,0
2017-11-11T03:57:05.774Z,0
2017-11-11T03:57:46.506Z,0
2017-11-11T03:58:27.035Z,0
2017-11-11T03:59:07.580Z,0
2017-11-11T03:59:48.124Z,0
2017-11-11T04:00:28.644Z,0
2017-11-11T04:01:09.193Z,0
2017-11-11T04:01:49.774Z,0
2017-11-11T04:02:30.316Z,0
2017-11-11T04:03:10.890Z,0
2017-11-11T04:03:51.429Z,0
2017-11-11T04:04:31.979Z,0
2017-11-11T04:05:12.512Z,0
2017-11-11T04:05:53.100Z,0
2017-11-11T04:06:33.652Z,0
2017-11-11T04:07:14.189Z,0
2017-11-11T04:07:54.765Z,0
2017-11-11T04:08:35.301Z,0
2017-11-11T04:09:15.820Z,0
2017-11-11T04:09:56.408Z,0
2017-11-11T04:10:36.993Z,0
2017-11-11T04:11:17.499Z,0
2017-11-11T04:11:58.035Z,0
2017-11-11T04:12:38.588Z,0
2017-11-11T04:13:19.155Z,0
2017-11-11T04:13:59.699Z,0
2017-11-11T04:14:40.258Z,0
2017-11-11T04:15:20.784Z,0
2017-11-11T04:16:01.356Z,0
2017-11-11T04:16:41.874Z,0
2017-11-11T04:17:22.425Z,0
2017-11-11T04:18:02.982Z,0
2017-11-11T04:18:43.563Z,0
2017-11-11T04:19:24.097Z,0
2017-11-11T04:20:04.662Z,0
2017-11-11T04:20:45.199Z,0
2017-11-11T04:21:25.810Z,0
2017-11-11T04:22:06.332Z,0
2017-11-11T04:22:46.866Z,0
2017-11-11T04:23:27.537Z,0
2017-11-11T04:24:08.120Z,0
2017-11-11T04:24:48.657Z,0
2017-11-11T04:25:29.392Z,0
2017-11-11T04:26:09.825Z,0
2017-11-11T04:26:50.381Z,0
2017-11-11T04:27:31.717Z,0
2017-11-11T04:28:12.242Z,0
2017-11-11T04:28:52.791Z,0
2017-11-11T04:29:33.333Z,0
2017-11-11T04:30:13.927Z,0
2017-11-11T04:30:54.422Z,0
2017-11-11T04:31:34.948Z,0
2017-11-11T04:32:15.497Z,0
2017-11-11T04:32:56.070Z,0
2017-11-11T04:33:36.594Z,0
2017-11-11T04:34:17.173Z,0
2017-11-11T04:34:57.678Z,0
2017-11-11T04:35:38.256Z,0
2017-11-11T04:36:18.785Z,0
2017-11-11T04:36:59.350Z,0
2017-11-11T04:37:39.959Z,0
2017-11-11T04:38:20.449Z,0
2017-11-11T04:39:01.000Z,0
2017-11-11T04:39:41.730Z,0
2017-11-11T04:40:22.113Z,0
2017-11-11T04:41:02.656Z,0
2017-11-11T04:41:43.218Z,0
2017-11-11T04:42:23.762Z,0
2017-11-11T04:43:04.295Z,0
2017-11-11T04:43:44.993Z,0
2017-11-11T04:44:25.527Z,0
2017-11-11T04:45:06.075Z,0
2017-11-11T04:45:46.706Z,0
2017-11-11T04:46:27.239Z,0
2017-11-11T04:47:07.760Z,0
2017-11-11T04:47:48.289Z,0
2017-11-11T04:48:28.848Z,0
2017-11-11T04:49:09.388Z,0
2017-11-11T04:49:49.970Z,0
2017-11-11T04:50:30.556Z,0
2017-11-11T04:51:11.086Z,0
2017-11-11T04:51:51.634Z,0
2017-11-11T04:52:32.213Z,0
2017-11-11T04:53:12.760Z,0
2017-11-11T04:53:53.324Z,0
2017-11-11T04:54:33.884Z,0
2017-11-11T04:55:14.404Z,0
2017-11-11T04:55:54.959Z,0
2017-11-11T04:56:35.535Z,0
2017-11-11T04:57:16.078Z,0
2017-11-11T04:57:56.649Z,0
2017-11-11T04:58:37.196Z,0
2017-11-11T04:59:17.769Z,0
2017-11-11T04:59:58.332Z,0
2017-11-11T05:00:38.853Z,0
2017-11-11T05:01:19.370Z,0
2017-11-11T05:01:59.934Z,0
2017-11-11T05:02:40.576Z,0
2017-11-11T05:03:21.075Z,0
2017-11-11T05:04:01.660Z,0
2017-11-11T05:04:42.212Z,0
2017-11-11T05:05:22.721Z,0
2017-11-11T05:06:03.357Z,0
2017-11-11T05:06:43.902Z,0
2017-11-11T05:07:24.528Z,0
2017-11-11T05:08:04.976Z,0
2017-11-11T05:08:45.602Z,0
2017-11-11T05:09:26.183Z,0
2017-11-11T05:10:06.734Z,0
2017-11-11T05:10:47.303Z,0
2017-11-11T05:11:27.856Z,0
2017-11-11T05:12:08.362Z,0
2017-11-11T05:12:48.859Z,0
2017-11-11T05:13:29.410Z,0
2017-11-11T05:14:09.974Z,0
2017-11-11T05:14:50.518Z,0
2017-11-11T05:15:31.103Z,0
2017-11-11T05:16:11.674Z,0
2017-11-11T05:16:52.187Z,0
2017-11-11T05:17:32.772Z,0
2017-11-11T05:18:13.281Z,0
2017-11-11T05:18:53.831Z,0
2017-11-11T05:19:34.428Z,0
2017-11-11T05:20:14.922Z,0
2017-11-11T05:20:55.470Z,0
2017-11-11T05:21:36.019Z,0
2017-11-11T05:22:16.571Z,0
2017-11-11T05:22:57.156Z,0
2017-11-11T05:23:37.642Z,0
2017-11-11T05:24:18.206Z,0
2017-11-11T05:24:58.760Z,0
2017-11-11T05:25:39.273Z,0
2017-11-11T05:26:19.855Z,0
2017-11-11T05:27:00.400Z,0
2017-11-11T05:27:40.906Z,0
2017-11-11T05:28:21.467Z,0
2017-11-11T05:29:02.016Z,0
2017-11-11T05:29:42.562Z,0
2017-11-11T05:30:23.095Z,0
2017-11-11T05:31:03.646Z,0
2017-11-11T05:31:44.205Z,0
2017-11-11T05:32:24.744Z,0
2017-11-11T05:33:05.310Z,0
2017-11-11T05:33:45.855Z,0
2017-11-11T05:34:26.393Z,0
2017-11-11T05:35:06.934Z,0
2017-11-11T05:35:47.516Z,0
2017-11-11T05:36:28.063Z,0
2017-11-11T05:37:08.651Z,0
2017-11-11T05:37:49.154Z,0
2017-11-11T05:38:29.709Z,0
2017-11-11T05:39:10.340Z,0
2017-11-11T05:39:50.901Z,0
2017-11-11T05:40:31.439Z,0
2017-11-11T05:41:11.988Z,0
2017-11-11T05:41:52.576Z,0
2017-11-11T05:42:33.169Z,0
2017-11-11T05:43:13.694Z,0
2017-11-11T05:43:54.278Z,0
2017-11-11T05:44:34.812Z,0
2017-11-11T05:45:15.365Z,0
2017-11-11T05:45:55.870Z,0
2017-11-11T05:46:36.429Z,0
2017-11-11T05:47:17.012Z,0
2017-11-11T05:47:57.655Z,0
2017-11-11T05:48:38.219Z,0
2017-11-11T05:49:18.750Z,0
2017-11-11T05:49:59.258Z,0
2017-11-11T05:50:39.943Z,0
2017-11-11T05:51:20.401Z,0
2017-11-11T05:52:00.958Z,0
2017-11-11T05:52:41.527Z,0
2017-11-11T05:53:22.045Z,0
2017-11-11T05:54:02.583Z,0
2017-11-11T05:54:43.256Z,0
2017-11-11T05:55:23.837Z,0
2017-11-11T05:56:04.376Z,0
2017-11-11T05:56:44.974Z,0
2017-11-11T05:57:25.511Z,0
2017-11-11T05:58:06.047Z,0
2017-11-11T05:58:46.600Z,0
2017-11-11T05:59:27.155Z,0
2017-11-11T06:00:07.675Z,0
2017-11-11T06:00:48.253Z,0
2017-11-11T06:01:28.827Z,0
2017-11-11T06:02:09.358Z,0
2017-11-11T06:02:49.918Z,0
2017-11-11T06:03:30.395Z,0
2017-11-11T06:04:10.928Z,0
2017-11-11T06:04:51.653Z,0
2017-11-11T06:05:32.172Z,0
2017-11-11T06:06:12.746Z,0
2017-11-11T06:06:53.315Z,0
2017-11-11T06:07:33.881Z,0
2017-11-11T06:08:14.425Z,0
2017-11-11T06:08:54.921Z,0
2017-11-11T06:09:35.488Z,0
2017-11-11T06:10:16.017Z,0
2017-11-11T06:10:56.524Z,0
2017-11-11T06:11:37.084Z,0
2017-11-11T06:12:17.634Z,0
2017-11-11T06:12:58.171Z,0
2017-11-11T06:13:38.771Z,0
2017-11-11T06:14:19.336Z,0
2017-11-11T06:14:59.877Z,0
2017-11-11T06:15:40.405Z,0
2017-11-11T06:16:20.961Z,0
2017-11-11T06:17:01.535Z,0
2017-11-11T06:17:42.075Z,0
2017-11-11T06:18:22.630Z,0
2017-11-11T06:19:03.174Z,0
2017-11-11T06:19:43.697Z,0
2017-11-11T06:20:24.221Z,0
2017-11-11T06:21:04.793Z,0
2017-11-11T06:21:45.314Z,0
2017-11-11T06:22:25.882Z,0
2017-11-11T06:23:06.417Z,0
2017-11-11T06:23:46.939Z,0
2017-11-11T06:24:27.492Z,0
2017-11-11T06:25:07.984Z,0
2017-11-11T06:25:48.542Z,0
2017-11-11T06:26:29.217Z,0
2017-11-11T06:27:09.783Z,0
2017-11-11T06:27:50.314Z,0
2017-11-11T06:28:30.880Z,0
2017-11-11T06:29:11.405Z,0
2017-11-11T06:29:52.006Z,0
2017-11-11T06:30:33.091Z,0
2017-11-11T06:31:13.603Z,0
2017-11-11T06:31:54.184Z,0
2017-11-11T06:32:34.696Z,0
2017-11-11T06:33:15.260Z,0
2017-11-11T06:33:55.799Z,0
2017-11-11T06:34:36.310Z,0
2017-11-11T06:36:55.658Z,0
2017-11-11T06:37:36.163Z,0
2017-11-11T06:38:16.733Z,0
2017-11-11T06:40:56.851Z,0
2017-11-11T06:41:37.587Z,0
2017-11-11T06:42:18.169Z,0
2017-11-11T06:42:58.743Z,0
2017-11-11T06:43:39.490Z,0
2017-11-11T06:44:20.031Z,0
2017-11-11T06:45:00.612Z,0
2017-11-11T06:45:41.148Z,0
2017-11-11T06:46:21.678Z,0
2017-11-11T06:47:02.198Z,0
2017-11-11T06:47:42.764Z,0
2017-11-11T06:48:23.315Z,0
2017-11-11T06:49:03.903Z,0
2017-11-11T06:49:44.421Z,0
2017-11-11T06:50:24.961Z,0
2017-11-11T06:51:05.521Z,0
2017-11-11T06:51:46.063Z,0
2017-11-11T06:52:26.617Z,0
2017-11-11T06:53:10.312Z,0
2017-11-11T06:53:51.189Z,5
2017-11-11T06:56:33.969Z,5
2017-11-11T07:02:44.860Z,5
2017-11-11T07:03:35.345Z,5
2017-11-11T07:04:35.357Z,5
2017-11-11T07:05:25.753Z,5
2017-11-11T07:06:14.772Z,5
2017-11-11T07:07:04.396Z,5
2017-11-11T07:07:52.880Z,5
2017-11-11T07:08:42.040Z,5
2017-11-11T07:09:30.443Z,0
2017-11-11T07:10:19.340Z,0
2017-11-11T07:11:08.393Z,0
2017-11-11T07:11:57.271Z,0
2017-11-11T07:12:46.047Z,0
2017-11-11T07:13:35.014Z,0
2017-11-11T07:14:23.948Z,0
2017-11-11T07:15:14.849Z,5
2017-11-11T07:19:37.429Z,5
2017-11-11T07:20:26.539Z,5
2017-11-11T07:21:15.168Z,5
2017-11-11T07:22:04.404Z,5
2017-11-11T07:22:55.581Z,5
2017-11-11T07:35:44.394Z,10
2017-11-11T07:36:33.185Z,10
2017-11-11T07:37:21.916Z,10
2017-11-11T07:38:10.753Z,10
2017-11-11T07:38:59.000Z,10
2017-11-11T07:39:47.801Z,10
2017-11-11T07:40:36.327Z,10
2017-11-11T07:41:24.974Z,15
2017-11-11T07:42:13.987Z,15
2017-11-11T07:43:03.017Z,15
2017-11-11T07:43:51.417Z,15
2017-11-11T07:44:40.358Z,15
2017-11-11T07:45:29.246Z,10
2017-11-11T07:46:17.551Z,10
2017-11-11T07:47:06.487Z,10
2017-11-11T07:47:55.344Z,10
2017-11-11T07:48:44.428Z,10
2017-11-11T07:49:33.304Z,10
2017-11-11T07:50:22.308Z,10
2017-11-11T07:51:10.961Z,10
2017-11-11T07:51:59.411Z,10
2017-11-11T07:52:48.555Z,10
2017-11-11T07:53:36.995Z,10
2017-11-11T07:54:25.907Z,15
2017-11-11T07:55:14.829Z,15
2017-11-11T07:56:04.678Z,15
2017-11-11T08:00:14.849Z,20
2017-11-11T08:01:03.687Z,20
2017-11-11T08:01:54.441Z,20
2017-11-11T08:06:12.206Z,20
2017-11-11T08:07:07.437Z,20
2017-11-11T08:08:02.917Z,20
2017-11-11T08:08:52.252Z,20
2017-11-11T08:09:40.767Z,20
2017-11-11T08:12:34.172Z,25
2017-11-11T08:13:19.952Z,25
2017-11-11T08:14:00.452Z,25
2017-11-11T08:14:41.246Z,25
2017-11-11T08:15:22.991Z,25
2017-11-11T08:16:03.867Z,30
2017-11-11T08:16:44.554Z,30
2017-11-11T08:17:25.054Z,30
2017-11-11T08:18:05.894Z,30
2017-11-11T08:18:46.409Z,30
2017-11-11T08:19:29.977Z,30
2017-11-11T08:20:10.772Z,25
2017-11-11T08:20:52.003Z,30
2017-11-11T08:21:34.259Z,40
2017-11-11T08:22:15.765Z,45
2017-11-11T08:22:56.576Z,45
2017-11-11T08:23:38.699Z,45
2017-11-11T08:24:22.934Z,40
2017-11-11T08:25:04.781Z,40
2017-11-11T08:25:48.109Z,40
2017-11-11T08:26:31.836Z,40
2017-11-11T08:27:12.397Z,35
2017-11-11T08:27:53.005Z,35
2017-11-11T08:28:33.558Z,35
2017-11-11T08:29:15.348Z,35
2017-11-11T08:29:57.523Z,35
2017-11-11T08:30:38.081Z,35
2017-11-11T08:31:18.656Z,35
2017-11-11T08:31:59.201Z,35
2017-11-11T08:32:39.937Z,35
2017-11-11T08:33:20.516Z,35
2017-11-11T08:34:01.080Z,35
2017-11-11T08:34:41.598Z,35
2017-11-11T08:35:22.134Z,35
2017-11-11T08:36:02.646Z,35
2017-11-11T08:36:43.260Z,35
2017-11-11T08:37:24.170Z,30
2017-11-11T08:38:04.955Z,35
2017-11-11T08:38:45.585Z,35
2017-11-11T08:39:26.214Z,40
2017-11-11T08:40:07.943Z,35
2017-11-11T08:40:48.029Z,40
2017-11-11T08:41:28.910Z,40
2017-11-11T08:42:09.517Z,40
2017-11-11T08:42:50.101Z,40
2017-11-11T08:43:31.499Z,40
2017-11-11T08:44:16.042Z,40
2017-11-11T08:44:57.444Z,40
2017-11-11T08:45:37.810Z,40
2017-11-11T08:46:18.403Z,40
2017-11-11T08:46:58.912Z,40
2017-11-11T08:47:39.878Z,40
2017-11-11T08:48:20.288Z,45
2017-11-11T08:49:00.987Z,40
2017-11-11T08:49:43.723Z,40
2017-11-11T08:50:24.449Z,40
2017-11-11T08:51:04.935Z,40
2017-11-11T08:51:45.743Z,45
2017-11-11T08:52:30.111Z,50
2017-11-11T08:53:12.579Z,50
2017-11-11T08:53:53.974Z,50
2017-11-11T08:54:34.046Z,50
2017-11-11T08:55:17.687Z,45
2017-11-11T08:55:58.458Z,45
2017-11-11T08:56:45.685Z,45
2017-11-11T08:57:29.203Z,40
2017-11-11T08:58:11.280Z,40
2017-11-11T09:02:00.202Z,40
2017-11-11T09:02:42.864Z,45
2017-11-11T09:03:24.138Z,45
2017-11-11T09:04:04.717Z,40
2017-11-11T09:04:49.507Z,45
2017-11-11T09:05:34.542Z,45
2017-11-11T09:11:54.446Z,45
2017-11-11T09:12:42.993Z,45
2017-11-11T09:13:32.034Z,50
2017-11-11T09:14:20.746Z,50
2017-11-11T09:15:11.328Z,50
2017-11-11T09:16:00.121Z,50
2017-11-11T09:16:48.877Z,45
2017-11-11T09:17:37.099Z,45
2017-11-11T09:18:26.064Z,45
2017-11-11T09:19:15.122Z,40
2017-11-11T09:20:03.566Z,40
2017-11-11T09:20:52.911Z,45
2017-11-11T09:21:40.381Z,45
2017-11-11T09:22:29.629Z,45
2017-11-11T09:23:18.484Z,50
2017-11-11T09:24:07.579Z,50
2017-11-11T09:24:56.238Z,50
2017-11-11T09:25:45.734Z,50
2017-11-11T09:26:36.048Z,45
2017-11-11T09:27:24.469Z,45
2017-11-11T09:28:13.587Z,45
2017-11-11T09:28:55.490Z,45
2017-11-11T09:29:36.042Z,45
2017-11-11T09:30:16.841Z,45
2017-11-11T09:30:57.588Z,45
2017-11-11T09:31:38.160Z,50
2017-11-11T09:32:18.702Z,50
2017-11-11T09:32:59.236Z,50
2017-11-11T09:33:40.019Z,45
2017-11-11T09:34:21.446Z,45
2017-11-11T09:35:02.005Z,45
2017-11-11T09:35:42.556Z,50
2017-11-11T09:36:23.115Z,50
2017-11-11T09:37:03.834Z,50
2017-11-11T09:37:46.635Z,45
2017-11-11T09:38:34.860Z,45
2017-11-11T09:40:57.388Z,45
2017-11-11T09:41:45.934Z,50
2017-11-11T09:42:34.857Z,50
2017-11-11T09:43:24.006Z,55
2017-11-11T09:44:12.908Z,60
2017-11-11T09:45:01.872Z,60
2017-11-11T09:45:50.452Z,60
2017-11-11T09:46:39.677Z,65
2017-11-11T09:47:28.397Z,65
2017-11-11T09:48:17.252Z,65
2017-11-11T09:49:05.508Z,65
2017-11-11T09:49:50.673Z,60
2017-11-11T09:50:31.351Z,60
2017-11-11T09:51:11.877Z,60
2017-11-11T09:51:52.399Z,60
2017-11-11T09:52:32.931Z,60
2017-11-11T09:53:13.611Z,60
2017-11-11T09:53:54.215Z,60
2017-11-11T09:54:34.726Z,60
2017-11-11T09:55:15.302Z,60
2017-11-11T09:55:56.085Z,60
2017-11-11T09:56:36.641Z,60
2017-11-11T09:57:17.139Z,60
2017-11-11T09:57:57.670Z,60
2017-11-11T09:58:38.241Z,65
2017-11-11T09:59:18.816Z,65
2017-11-11T09:59:59.285Z,65
2017-11-11T10:00:40.177Z,70
2017-11-11T10:01:20.857Z,70
2017-11-11T10:02:01.966Z,70
2017-11-11T10:02:43.054Z,75
2017-11-11T10:03:23.892Z,75
2017-11-11T10:04:06.007Z,80
2017-11-11T10:04:48.258Z,80
2017-11-11T10:05:32.178Z,80
2017-11-11T10:06:12.776Z,80
2017-11-11T10:06:53.282Z,80
2017-11-11T10:07:33.841Z,80
2017-11-11T10:08:14.352Z,80
2017-11-11T10:08:55.047Z,80
2017-11-11T10:09:35.563Z,80
2017-11-11T10:10:16.100Z,75
2017-11-11T10:10:56.653Z,70
2017-11-11T10:11:37.198Z,75
2017-11-11T10:12:18.027Z,70
2017-11-11T10:12:58.344Z,70
2017-11-11T10:13:38.920Z,70
2017-11-11T10:14:19.486Z,70
2017-11-11T10:15:00.021Z,70
2017-11-11T10:15:40.734Z,65
2017-11-11T10:16:21.234Z,65
2017-11-11T10:17:02.811Z,65
2017-11-11T10:17:43.284Z,65
2017-11-11T10:18:23.812Z,65
2017-11-11T10:19:04.913Z,70
2017-11-11T10:19:45.454Z,70
2017-11-11T10:20:26.015Z,75
2017-11-11T10:21:06.546Z,80
2017-11-11T10:21:47.466Z,85
2017-11-11T10:22:27.942Z,85
2017-11-11T10:23:08.946Z,80
2017-11-11T10:23:49.842Z,80
2017-11-11T10:24:31.535Z,95
2017-11-11T10:25:12.161Z,100
2017-11-11T10:25:52.961Z,90
2017-11-11T10:26:33.674Z,85
2017-11-11T10:27:14.446Z,85
2017-11-11T10:27:55.210Z,75
2017-11-11T10:28:35.580Z,75
2017-11-11T10:29:16.180Z,80
2017-11-11T10:29:56.689Z,80
2017-11-11T10:30:37.220Z,65
2017-11-11T10:31:17.750Z,75
2017-11-11T10:31:58.355Z,75
2017-11-11T10:32:38.954Z,75
2017-11-11T10:33:19.532Z,75
2017-11-11T10:34:00.089Z,70
2017-11-11T10:34:40.583Z,70
2017-11-11T10:35:21.491Z,70
2017-11-11T10:36:02.092Z,75
2017-11-11T10:36:47.295Z,75
2017-11-11T10:37:33.092Z,65
2017-11-11T10:38:13.869Z,65
2017-11-11T10:38:54.610Z,70
2017-11-11T10:39:35.014Z,65
2017-11-11T10:40:15.455Z,70
2017-11-11T10:40:56.090Z,65
2017-11-11T10:41:36.724Z,65
2017-11-11T10:42:17.331Z,70
2017-11-11T10:42:57.791Z,80
2017-11-11T10:43:38.424Z,75
2017-11-11T10:44:18.969Z,80
2017-11-11T10:44:59.652Z,70
2017-11-11T10:45:40.169Z,70
2017-11-11T10:46:20.849Z,70
2017-11-11T10:47:01.299Z,65
2017-11-11T10:47:41.860Z,65
2017-11-11T10:48:22.460Z,65
2017-11-11T10:49:02.940Z,65
2017-11-11T10:49:43.458Z,65
2017-11-11T10:50:24.013Z,60
2017-11-11T10:51:04.556Z,60
2017-11-11T10:51:45.167Z,60
2017-11-11T10:52:25.731Z,60
2017-11-11T10:53:06.321Z,60
2017-11-11T10:53:46.850Z,65
2017-11-11T10:54:27.369Z,60